sensor_id;sensor_type;location;lat;lon;timestamp;pressure;altitude;pressure_sealevel;temperature
27715;BMP280;16051;53.024;8.630;2023-01-19T00:02:35;99697.00;;;2.22
27715;BMP280;16051;53.024;8.630;2023-01-19T00:06:38;99707.03;;;2.25
27715;BMP280;16051;53.024;8.630;2023-01-19T00:10:41;99705.00;;;2.17
27715;BMP280;16051;53.024;8.630;2023-01-19T00:14:44;99702.78;;;2.24
27715;BMP280;16051;53.024;8.630;2023-01-19T00:18:52;99700.38;;;2.26
27715;BMP280;16051;53.024;8.630;2023-01-19T00:23:14;99712.25;;;2.32
27715;BMP280;16051;53.024;8.630;2023-01-19T00:27:16;99710.63;;;2.35
27715;BMP280;16051;53.024;8.630;2023-01-19T00:31:18;99715.97;;;2.38
27715;BMP280;16051;53.024;8.630;2023-01-19T00:35:24;99713.00;;;2.45
27715;BMP280;16051;53.024;8.630;2023-01-19T00:39:36;99721.91;;;2.46
27715;BMP280;16051;53.024;8.630;2023-01-19T00:43:38;99715.03;;;2.54
27715;BMP280;16051;53.024;8.630;2023-01-19T00:47:41;99717.03;;;2.41
27715;BMP280;16051;53.024;8.630;2023-01-19T00:51:44;99705.97;;;2.57
27715;BMP280;16051;53.024;8.630;2023-01-19T00:55:47;99723.44;;;2.60
27715;BMP280;16051;53.024;8.630;2023-01-19T00:59:50;99721.59;;;2.57
27715;BMP280;16051;53.024;8.630;2023-01-19T01:03:52;99735.41;;;2.62
27715;BMP280;16051;53.024;8.630;2023-01-19T01:07:56;99733.44;;;2.63
27715;BMP280;16051;53.024;8.630;2023-01-19T01:12:08;99729.13;;;2.53
27715;BMP280;16051;53.024;8.630;2023-01-19T01:16:13;99731.28;;;2.58
27715;BMP280;16051;53.024;8.630;2023-01-19T01:20:20;99731.72;;;2.56
27715;BMP280;16051;53.024;8.630;2023-01-19T01:24:24;99725.94;;;2.54
27715;BMP280;16051;53.024;8.630;2023-01-19T01:28:26;99734.88;;;2.55
27715;BMP280;16051;53.024;8.630;2023-01-19T01:32:28;99732.72;;;2.50
27715;BMP280;16051;53.024;8.630;2023-01-19T01:36:31;99731.84;;;2.53
27715;BMP280;16051;53.024;8.630;2023-01-19T01:41:04;99726.28;;;2.56
27715;BMP280;16051;53.024;8.630;2023-01-19T01:45:28;99731.44;;;2.41
27715;BMP280;16051;53.024;8.630;2023-01-19T01:49:30;99732.94;;;2.55
27715;BMP280;16051;53.024;8.630;2023-01-19T01:53:33;99720.81;;;2.56
27715;BMP280;16051;53.024;8.630;2023-01-19T01:57:42;99735.84;;;2.61
27715;BMP280;16051;53.024;8.630;2023-01-19T02:01:45;99733.59;;;2.46
27715;BMP280;16051;53.024;8.630;2023-01-19T02:06:06;99730.88;;;2.46
27715;BMP280;16051;53.024;8.630;2023-01-19T02:10:09;99723.03;;;2.48
27715;BMP280;16051;53.024;8.630;2023-01-19T02:14:30;99733.47;;;2.50
27715;BMP280;16051;53.024;8.630;2023-01-19T02:18:33;99725.16;;;2.54
27715;BMP280;16051;53.024;8.630;2023-01-19T02:22:45;99714.84;;;2.48
27715;BMP280;16051;53.024;8.630;2023-01-19T02:26:50;99718.88;;;2.44
27715;BMP280;16051;53.024;8.630;2023-01-19T02:30:53;99726.81;;;2.51
27715;BMP280;16051;53.024;8.630;2023-01-19T02:34:55;99723.03;;;2.48
27715;BMP280;16051;53.024;8.630;2023-01-19T02:39:01;99736.53;;;2.52
27715;BMP280;16051;53.024;8.630;2023-01-19T02:43:07;99735.78;;;2.52
27715;BMP280;16051;53.024;8.630;2023-01-19T02:47:10;99742.09;;;2.48
27715;BMP280;16051;53.024;8.630;2023-01-19T02:51:16;99747.22;;;2.46
27715;BMP280;16051;53.024;8.630;2023-01-19T02:55:24;99738.38;;;2.55
27715;BMP280;16051;53.024;8.630;2023-01-19T02:59:46;99726.72;;;2.55
27715;BMP280;16051;53.024;8.630;2023-01-19T03:03:57;99726.59;;;2.58
27715;BMP280;16051;53.024;8.630;2023-01-19T03:08:13;99726.47;;;2.62
27715;BMP280;16051;53.024;8.630;2023-01-19T03:12:30;99727.78;;;2.57
27715;BMP280;16051;53.024;8.630;2023-01-19T03:16:41;99743.81;;;2.55
27715;BMP280;16051;53.024;8.630;2023-01-19T03:20:45;99732.94;;;2.55
27715;BMP280;16051;53.024;8.630;2023-01-19T03:24:54;99730.63;;;2.54
27715;BMP280;16051;53.024;8.630;2023-01-19T03:29:01;99730.44;;;2.48
27715;BMP280;16051;53.024;8.630;2023-01-19T03:33:10;99736.66;;;2.48
27715;BMP280;16051;53.024;8.630;2023-01-19T03:37:18;99740.34;;;2.55
27715;BMP280;16051;53.024;8.630;2023-01-19T03:41:24;99745.03;;;2.54
27715;BMP280;16051;53.024;8.630;2023-01-19T03:45:30;99755.63;;;2.52
27715;BMP280;16051;53.024;8.630;2023-01-19T03:49:36;99747.22;;;2.46
27715;BMP280;16051;53.024;8.630;2023-01-19T03:53:39;99744.59;;;2.43
27715;BMP280;16051;53.024;8.630;2023-01-19T03:57:41;99747.31;;;2.56
27715;BMP280;16051;53.024;8.630;2023-01-19T04:01:43;99754.31;;;2.44
27715;BMP280;16051;53.024;8.630;2023-01-19T04:05:47;99754.00;;;2.42
27715;BMP280;16051;53.024;8.630;2023-01-19T04:09:49;99749.41;;;2.39
27715;BMP280;16051;53.024;8.630;2023-01-19T04:13:51;99753.19;;;2.54
27715;BMP280;16051;53.024;8.630;2023-01-19T04:17:53;99754.97;;;2.48
27715;BMP280;16051;53.024;8.630;2023-01-19T04:21:59;99754.84;;;2.52
27715;BMP280;16051;53.024;8.630;2023-01-19T04:26:04;99760.00;;;2.50
27715;BMP280;16051;53.024;8.630;2023-01-19T04:30:23;99765.00;;;2.38
27715;BMP280;16051;53.024;8.630;2023-01-19T04:34:25;99775.69;;;2.45
27715;BMP280;16051;53.024;8.630;2023-01-19T04:38:29;99764.34;;;2.47
27715;BMP280;16051;53.024;8.630;2023-01-19T04:42:31;99754.31;;;2.44
27715;BMP280;16051;53.024;8.630;2023-01-19T04:46:33;99761.72;;;2.43
27715;BMP280;16051;53.024;8.630;2023-01-19T04:50:35;99763.44;;;2.50
27715;BMP280;16051;53.024;8.630;2023-01-19T04:54:39;99761.84;;;2.40
27715;BMP280;16051;53.024;8.630;2023-01-19T04:58:41;99769.91;;;2.43
27715;BMP280;16051;53.024;8.630;2023-01-19T05:02:43;99759.56;;;2.38
27715;BMP280;16051;53.024;8.630;2023-01-19T05:06:45;99765.88;;;2.35
27715;BMP280;16051;53.024;8.630;2023-01-19T05:10:49;99774.38;;;2.37
27715;BMP280;16051;53.024;8.630;2023-01-19T05:14:51;99770.97;;;2.46
27715;BMP280;16051;53.024;8.630;2023-01-19T05:18:53;99775.22;;;2.47
27715;BMP280;16051;53.024;8.630;2023-01-19T05:22:56;99773.69;;;2.46
27715;BMP280;16051;53.024;8.630;2023-01-19T05:27:00;99781.13;;;2.45
27715;BMP280;16051;53.024;8.630;2023-01-19T05:31:02;99771.97;;;2.39
27715;BMP280;16051;53.024;8.630;2023-01-19T05:35:05;99784.53;;;2.50
27715;BMP280;16051;53.024;8.630;2023-01-19T05:39:07;99788.22;;;2.43
27715;BMP280;16051;53.024;8.630;2023-01-19T05:43:12;99784.53;;;2.50
27715;BMP280;16051;53.024;8.630;2023-01-19T05:47:17;99779.56;;;2.57
27715;BMP280;16051;53.024;8.630;2023-01-19T05:51:19;99787.56;;;2.52
27715;BMP280;16051;53.024;8.630;2023-01-19T05:55:22;99791.81;;;2.53
27715;BMP280;16051;53.024;8.630;2023-01-19T05:59:25;99789.84;;;2.53
27715;BMP280;16051;53.024;8.630;2023-01-19T06:03:27;99800.97;;;2.59
27715;BMP280;16051;53.024;8.630;2023-01-19T06:07:29;99802.81;;;2.62
27715;BMP280;16051;53.024;8.630;2023-01-19T06:11:31;99816.00;;;2.63
27715;BMP280;16051;53.024;8.630;2023-01-19T06:15:35;99811.84;;;2.71
27715;BMP280;16051;53.024;8.630;2023-01-19T06:19:37;99809.44;;;2.61
27715;BMP280;16051;53.024;8.630;2023-01-19T06:23:40;99816.00;;;2.63
27715;BMP280;16051;53.024;8.630;2023-01-19T06:27:43;99819.94;;;2.62
27715;BMP280;16051;53.024;8.630;2023-01-19T06:31:49;99818.84;;;2.60
27715;BMP280;16051;53.024;8.630;2023-01-19T06:35:51;99825.56;;;2.68
27715;BMP280;16051;53.024;8.630;2023-01-19T06:39:53;99835.53;;;2.62
27715;BMP280;16051;53.024;8.630;2023-01-19T06:43:55;99840.66;;;2.60
27715;BMP280;16051;53.024;8.630;2023-01-19T06:47:59;99844.88;;;2.61
27715;BMP280;16051;53.024;8.630;2023-01-19T06:52:33;99845.00;;;2.70
27715;BMP280;16051;53.024;8.630;2023-01-19T06:56:41;99852.53;;;2.66
27715;BMP280;16051;53.024;8.630;2023-01-19T07:00:44;99856.25;;;2.59
27715;BMP280;16051;53.024;8.630;2023-01-19T07:04:47;99859.72;;;2.72
27715;BMP280;16051;53.024;8.630;2023-01-19T07:08:50;99867.69;;;2.67
27715;BMP280;16051;53.024;8.630;2023-01-19T07:12:55;99874.88;;;2.73
27715;BMP280;16051;53.024;8.630;2023-01-19T07:16:57;99880.44;;;2.70
27715;BMP280;16051;53.024;8.630;2023-01-19T07:21:12;99877.50;;;2.64
27715;BMP280;16051;53.024;8.630;2023-01-19T07:25:15;99892.34;;;2.63
27715;BMP280;16051;53.024;8.630;2023-01-19T07:29:17;99898.69;;;2.60
27715;BMP280;16051;53.024;8.630;2023-01-19T07:33:26;99900.19;;;2.61
27715;BMP280;16051;53.024;8.630;2023-01-19T07:37:31;99903.00;;;2.58
27715;BMP280;16051;53.024;8.630;2023-01-19T07:41:33;99903.47;;;2.56
27715;BMP280;16051;53.024;8.630;2023-01-19T07:46:03;99915.34;;;2.62
27715;BMP280;16051;53.024;8.630;2023-01-19T07:50:06;99920.81;;;2.62
27715;BMP280;16051;53.024;8.630;2023-01-19T07:54:25;99933.00;;;2.58
27715;BMP280;16051;53.024;8.630;2023-01-19T07:58:27;99928.31;;;2.58
27715;BMP280;16051;53.024;8.630;2023-01-19T08:02:29;99944.91;;;2.64
27715;BMP280;16051;53.024;8.630;2023-01-19T08:06:34;99958.34;;;2.71
27715;BMP280;16051;53.024;8.630;2023-01-19T08:10:39;99959.19;;;2.68
27715;BMP280;16051;53.024;8.630;2023-01-19T08:14:41;99961.06;;;2.71
27715;BMP280;16051;53.024;8.630;2023-01-19T08:18:57;99962.69;;;2.81
27715;BMP280;16051;53.024;8.630;2023-01-19T08:22:59;99968.38;;;2.74
27715;BMP280;16051;53.024;8.630;2023-01-19T08:27:04;99980.69;;;2.91
27715;BMP280;16051;53.024;8.630;2023-01-19T08:31:06;99965.63;;;2.86
27715;BMP280;16051;53.024;8.630;2023-01-19T08:35:08;99969.13;;;2.87
27715;BMP280;16051;53.024;8.630;2023-01-19T08:39:11;99972.75;;;2.96
27715;BMP280;16051;53.024;8.630;2023-01-19T08:43:25;99982.66;;;3.03
27715;BMP280;16051;53.024;8.630;2023-01-19T08:47:28;99984.06;;;3.08
27715;BMP280;16051;53.024;8.630;2023-01-19T08:51:30;99992.78;;;3.15
27715;BMP280;16051;53.024;8.630;2023-01-19T08:55:57;99989.53;;;3.08
27715;BMP280;16051;53.024;8.630;2023-01-19T09:00:03;100000.44;;;3.20
27715;BMP280;16051;53.024;8.630;2023-01-19T09:04:07;100005.25;;;3.16
27715;BMP280;16051;53.024;8.630;2023-01-19T09:08:11;100010.28;;;3.18
27715;BMP280;16051;53.024;8.630;2023-01-19T09:12:14;100007.88;;;3.32
27715;BMP280;16051;53.024;8.630;2023-01-19T09:16:22;100023.91;;;3.30
27715;BMP280;16051;53.024;8.630;2023-01-19T09:20:33;100021.28;;;3.27
27715;BMP280;16051;53.024;8.630;2023-01-19T09:24:38;100024.56;;;3.34
27715;BMP280;16051;53.024;8.630;2023-01-19T09:28:45;100038.88;;;3.38
27715;BMP280;16051;53.024;8.630;2023-01-19T09:32:48;100041.16;;;3.40
27715;BMP280;16051;53.024;8.630;2023-01-19T09:36:50;100054.47;;;3.38
27715;BMP280;16051;53.024;8.630;2023-01-19T09:41:02;100057.09;;;3.41
27715;BMP280;16051;53.024;8.630;2023-01-19T09:45:14;100060.16;;;3.43
27715;BMP280;16051;53.024;8.630;2023-01-19T09:49:30;100062.78;;;3.47
27715;BMP280;16051;53.024;8.630;2023-01-19T09:53:45;100063.75;;;3.40
27715;BMP280;16051;53.024;8.630;2023-01-19T09:57:58;100058.75;;;3.39
27715;BMP280;16051;53.024;8.630;2023-01-19T10:02:32;100069.53;;;3.42
27715;BMP280;16051;53.024;8.630;2023-01-19T10:06:38;100064.72;;;3.34
27715;BMP280;16051;53.024;8.630;2023-01-19T10:10:46;100071.50;;;3.42
27715;BMP280;16051;53.024;8.630;2023-01-19T10:15:04;100070.09;;;3.37
27715;BMP280;16051;53.024;8.630;2023-01-19T10:24:08;100079.69;;;3.55
27715;BMP280;16051;53.024;8.630;2023-01-19T10:28:25;100067.34;;;3.63
27715;BMP280;16051;53.024;8.630;2023-01-19T10:32:32;100088.66;;;3.68
27715;BMP280;16051;53.024;8.630;2023-01-19T10:36:38;100093.34;;;3.67
27715;BMP280;16051;53.024;8.630;2023-01-19T10:40:53;100093.03;;;3.65
27715;BMP280;16051;53.024;8.630;2023-01-19T10:44:56;100095.75;;;3.65
27715;BMP280;16051;53.024;8.630;2023-01-19T10:48:58;100098.91;;;3.64
27715;BMP280;16051;53.024;8.630;2023-01-19T10:53:19;100102.94;;;3.72
27715;BMP280;16051;53.024;8.630;2023-01-19T10:57:28;100107.97;;;3.73
27715;BMP280;16051;53.024;8.630;2023-01-19T11:01:32;100113.19;;;3.80
27715;BMP280;16051;53.024;8.630;2023-01-19T11:05:36;100110.00;;;3.94
27715;BMP280;16051;53.024;8.630;2023-01-19T11:09:41;100112.19;;;4.00
27715;BMP280;16051;53.024;8.630;2023-01-19T11:14:03;100115.56;;;4.04
27715;BMP280;16051;53.024;8.630;2023-01-19T11:18:07;100117.41;;;4.07
27715;BMP280;16051;53.024;8.630;2023-01-19T11:22:28;100114.34;;;4.17
27715;BMP280;16051;53.024;8.630;2023-01-19T11:26:34;100124.50;;;4.17
27715;BMP280;16051;53.024;8.630;2023-01-19T11:30:54;100126.56;;;4.25
27715;BMP280;16051;53.024;8.630;2023-01-19T11:34:56;100125.25;;;4.30
27715;BMP280;16051;53.024;8.630;2023-01-19T11:39:12;100133.66;;;4.57
27715;BMP280;16051;53.024;8.630;2023-01-19T11:43:31;100136.91;;;4.65
27715;BMP280;16051;53.024;8.630;2023-01-19T11:47:41;100141.50;;;4.68
27715;BMP280;16051;53.024;8.630;2023-01-19T11:51:55;100139.41;;;4.72
27715;BMP280;16051;53.024;8.630;2023-01-19T11:56:04;100143.34;;;4.71
27715;BMP280;16051;53.024;8.630;2023-01-19T12:00:24;100148.44;;;4.81
27715;BMP280;16051;53.024;8.630;2023-01-19T12:04:34;100150.31;;;4.84
27715;BMP280;16051;53.024;8.630;2023-01-19T12:08:43;100155.81;;;4.93
27715;BMP280;16051;53.024;8.630;2023-01-19T12:12:46;100146.09;;;4.92
27715;BMP280;16051;53.024;8.630;2023-01-19T12:16:52;100153.44;;;4.95
27715;BMP280;16051;53.024;8.630;2023-01-19T12:20:57;100156.59;;;4.94
27715;BMP280;16051;53.024;8.630;2023-01-19T12:25:09;100150.59;;;5.08
27715;BMP280;16051;53.024;8.630;2023-01-19T12:29:17;100150.16;;;5.10
27715;BMP280;16051;53.024;8.630;2023-01-19T12:33:31;100150.34;;;5.15
27715;BMP280;16051;53.024;8.630;2023-01-19T12:37:39;100159.81;;;5.23
27715;BMP280;16051;53.024;8.630;2023-01-19T12:41:42;100157.47;;;5.34
27715;BMP280;16051;53.024;8.630;2023-01-19T12:45:45;100150.63;;;5.39
27715;BMP280;16051;53.024;8.630;2023-01-19T12:49:51;100162.69;;;5.51
27715;BMP280;16051;53.024;8.630;2023-01-19T12:53:57;100159.38;;;5.56
27715;BMP280;16051;53.024;8.630;2023-01-19T12:58:13;100172.81;;;5.63
27715;BMP280;16051;53.024;8.630;2023-01-19T13:02:51;100166.91;;;5.73
27715;BMP280;16051;53.024;8.630;2023-01-19T13:07:08;100173.47;;;5.76
27715;BMP280;16051;53.024;8.630;2023-01-19T13:11:18;100170.72;;;5.76
27715;BMP280;16051;53.024;8.630;2023-01-19T13:15:34;100175.63;;;5.81
27715;BMP280;16051;53.024;8.630;2023-01-19T13:20:21;100170.13;;;5.81
27715;BMP280;16051;53.024;8.630;2023-01-19T13:24:24;100180.47;;;5.77
27715;BMP280;16051;53.024;8.630;2023-01-19T13:28:35;100188.69;;;5.77
27715;BMP280;16051;53.024;8.630;2023-01-19T13:32:41;100187.63;;;5.74
27715;BMP280;16051;53.024;8.630;2023-01-19T13:36:46;100193.59;;;5.82
27715;BMP280;16051;53.024;8.630;2023-01-19T13:40:48;100203.78;;;5.81
27715;BMP280;16051;53.024;8.630;2023-01-19T13:44:53;100214.75;;;5.81
27715;BMP280;16051;53.024;8.630;2023-01-19T13:49:04;100215.91;;;5.93
27715;BMP280;16051;53.024;8.630;2023-01-19T13:53:20;100225.47;;;5.88
27715;BMP280;16051;53.024;8.630;2023-01-19T13:57:32;100234.63;;;5.94
27715;BMP280;16051;53.024;8.630;2023-01-19T14:01:37;100236.97;;;5.83
27715;BMP280;16051;53.024;8.630;2023-01-19T14:05:54;100246.88;;;5.81
27715;BMP280;16051;53.024;8.630;2023-01-19T14:10:04;100251.22;;;5.69
27715;BMP280;16051;53.024;8.630;2023-01-19T14:14:25;100259.53;;;5.57
27715;BMP280;16051;53.024;8.630;2023-01-19T14:18:30;100260.38;;;5.44
27715;BMP280;16051;53.024;8.630;2023-01-19T14:22:40;100266.09;;;5.37
27715;BMP280;16051;53.024;8.630;2023-01-19T14:26:45;100269.97;;;5.49
27715;BMP280;16051;53.024;8.630;2023-01-19T14:30:55;100276.03;;;5.44
27715;BMP280;16051;53.024;8.630;2023-01-19T14:35:21;100290.09;;;5.33
27715;BMP280;16051;53.024;8.630;2023-01-19T14:39:27;100290.59;;;5.19
27715;BMP280;16051;53.024;8.630;2023-01-19T14:43:42;100290.59;;;5.19
27715;BMP280;16051;53.024;8.630;2023-01-19T14:47:54;100307.94;;;5.16
27715;BMP280;16051;53.024;8.630;2023-01-19T14:52:00;100312.19;;;5.17
27715;BMP280;16051;53.024;8.630;2023-01-19T14:56:28;100313.81;;;5.15
27715;BMP280;16051;53.024;8.630;2023-01-19T15:00:31;100311.78;;;5.06
27715;BMP280;16051;53.024;8.630;2023-01-19T15:04:33;100330.53;;;4.95
27715;BMP280;16051;53.024;8.630;2023-01-19T15:08:38;100345.63;;;5.00
27715;BMP280;16051;53.024;8.630;2023-01-19T15:12:53;100354.09;;;4.80
27715;BMP280;16051;53.024;8.630;2023-01-19T15:16:56;100334.75;;;4.62
27715;BMP280;16051;53.024;8.630;2023-01-19T15:20:58;100337.16;;;4.47
27715;BMP280;16051;53.024;8.630;2023-01-19T15:25:05;100340.09;;;4.53
27715;BMP280;16051;53.024;8.630;2023-01-19T15:29:25;100339.78;;;4.38
27715;BMP280;16051;53.024;8.630;2023-01-19T15:33:29;100348.34;;;4.40
27715;BMP280;16051;53.024;8.630;2023-01-19T15:37:31;100351.69;;;4.31
27715;BMP280;16051;53.024;8.630;2023-01-19T15:41:38;100354.69;;;4.37
27715;BMP280;16051;53.024;8.630;2023-01-19T15:45:43;100351.50;;;4.38
27715;BMP280;16051;53.024;8.630;2023-01-19T15:49:47;100360.22;;;4.21
27715;BMP280;16051;53.024;8.630;2023-01-19T15:53:50;100370.84;;;4.19
27715;BMP280;16051;53.024;8.630;2023-01-19T15:57:54;100382.66;;;4.16
27715;BMP280;16051;53.024;8.630;2023-01-19T16:02:01;100387.56;;;4.08
27715;BMP280;16051;53.024;8.630;2023-01-19T16:06:03;100389.63;;;4.17
27715;BMP280;16051;53.024;8.630;2023-01-19T16:10:06;100398.03;;;4.10
27715;BMP280;16051;53.024;8.630;2023-01-19T16:14:10;100414.63;;;4.03
27715;BMP280;16051;53.024;8.630;2023-01-19T16:18:15;100415.50;;;3.87
27715;BMP280;16051;53.024;8.630;2023-01-19T16:22:23;100401.94;;;3.83
27715;BMP280;16051;53.024;8.630;2023-01-19T16:26:29;100419.16;;;3.80
27715;BMP280;16051;53.024;8.630;2023-01-19T16:30:33;100410.34;;;3.60
27715;BMP280;16051;53.024;8.630;2023-01-19T16:34:35;100417.78;;;3.60
27715;BMP280;16051;53.024;8.630;2023-01-19T16:38:37;100416.59;;;3.61
27715;BMP280;16051;53.024;8.630;2023-01-19T16:42:44;100415.75;;;3.47
27715;BMP280;16051;53.024;8.630;2023-01-19T16:46:48;100417.22;;;3.36
27715;BMP280;16051;53.024;8.630;2023-01-19T16:51:02;100425.09;;;3.18
27715;BMP280;16051;53.024;8.630;2023-01-19T16:55:06;100428.09;;;3.07
27715;BMP280;16051;53.024;8.630;2023-01-19T16:59:13;100434.28;;;3.08
27715;BMP280;16051;53.024;8.630;2023-01-19T17:03:17;100444.03;;;2.92
27715;BMP280;16051;53.024;8.630;2023-01-19T17:07:19;100455.44;;;2.87
27715;BMP280;16051;53.024;8.630;2023-01-19T17:11:26;100453.72;;;2.77
27715;BMP280;16051;53.024;8.630;2023-01-19T17:15:30;100454.97;;;2.73
27715;BMP280;16051;53.024;8.630;2023-01-19T17:19:33;100461.00;;;2.64
27715;BMP280;16051;53.024;8.630;2023-01-19T17:23:41;100469.97;;;2.65
27715;BMP280;16051;53.024;8.630;2023-01-19T17:27:43;100469.53;;;2.66
27715;BMP280;16051;53.024;8.630;2023-01-19T17:31:45;100484.94;;;2.57
27715;BMP280;16051;53.024;8.630;2023-01-19T17:36:02;100484.34;;;2.49
27715;BMP280;16051;53.024;8.630;2023-01-19T17:40:06;100492.50;;;2.49
27715;BMP280;16051;53.024;8.630;2023-01-19T17:44:09;100495.78;;;2.40
27715;BMP280;16051;53.024;8.630;2023-01-19T17:48:11;100496.34;;;2.32
27715;BMP280;16051;53.024;8.630;2023-01-19T17:52:15;100482.53;;;2.23
27715;BMP280;16051;53.024;8.630;2023-01-19T17:56:20;100506.50;;;2.31
27715;BMP280;16051;53.024;8.630;2023-01-19T18:00:22;100506.97;;;2.26
27715;BMP280;16051;53.024;8.630;2023-01-19T18:04:27;100502.50;;;2.16
27715;BMP280;16051;53.024;8.630;2023-01-19T18:08:30;100514.25;;;2.13
27715;BMP280;16051;53.024;8.630;2023-01-19T18:12:34;100517.31;;;2.15
27715;BMP280;16051;53.024;8.630;2023-01-19T18:16:37;100522.81;;;2.12
27715;BMP280;16051;53.024;8.630;2023-01-19T18:20:39;100526.47;;;2.05
27715;BMP280;16051;53.024;8.630;2023-01-19T18:24:45;100527.56;;;2.08
27715;BMP280;16051;53.024;8.630;2023-01-19T18:28:51;100526.53;;;2.02
27715;BMP280;16051;53.024;8.630;2023-01-19T18:32:55;100530.09;;;1.98
27715;BMP280;16051;53.024;8.630;2023-01-19T18:36:58;100532.69;;;2.06
27715;BMP280;16051;53.024;8.630;2023-01-19T18:41:04;100536.25;;;2.03
27715;BMP280;16051;53.024;8.630;2023-01-19T18:45:07;100543.28;;;2.00
27715;BMP280;16051;53.024;8.630;2023-01-19T18:49:13;100544.44;;;1.99
27715;BMP280;16051;53.024;8.630;2023-01-19T18:53:15;100533.69;;;1.92
27715;BMP280;16051;53.024;8.630;2023-01-19T18:57:19;100541.97;;;1.85
27715;BMP280;16051;53.024;8.630;2023-01-19T19:01:23;100543.66;;;1.79
27715;BMP280;16051;53.024;8.630;2023-01-19T19:05:50;100542.47;;;1.80
27715;BMP280;16051;53.024;8.630;2023-01-19T19:09:52;100524.44;;;1.66
27715;BMP280;16051;53.024;8.630;2023-01-19T19:13:58;100542.22;;;1.71
27715;BMP280;16051;53.024;8.630;2023-01-19T19:18:08;100545.38;;;1.69
27715;BMP280;16051;53.024;8.630;2023-01-19T19:22:26;100559.34;;;1.71
27715;BMP280;16051;53.024;8.630;2023-01-19T19:26:29;100554.72;;;1.68
27715;BMP280;16051;53.024;8.630;2023-01-19T19:36:00;100571.22;;;1.58
27715;BMP280;16051;53.024;8.630;2023-01-19T19:40:27;100562.56;;;1.66
27715;BMP280;16051;53.024;8.630;2023-01-19T19:44:30;100577.69;;;1.67
27715;BMP280;16051;53.024;8.630;2023-01-19T19:48:34;100572.66;;;1.66
27715;BMP280;16051;53.024;8.630;2023-01-19T19:52:41;100582.00;;;1.65
27715;BMP280;16051;53.024;8.630;2023-01-19T19:56:54;100581.28;;;1.61
27715;BMP280;16051;53.024;8.630;2023-01-19T20:00:56;100590.63;;;1.60
27715;BMP280;16051;53.024;8.630;2023-01-19T20:05:03;100591.34;;;1.64
27715;BMP280;16051;53.024;8.630;2023-01-19T20:09:36;100595.78;;;1.54
27715;BMP280;16051;53.024;8.630;2023-01-19T20:13:42;100606.22;;;1.59
27715;BMP280;16051;53.024;8.630;2023-01-19T20:17:45;100610.91;;;1.59
27715;BMP280;16051;53.024;8.630;2023-01-19T20:21:47;100620.25;;;1.58
27715;BMP280;16051;53.024;8.630;2023-01-19T20:25:50;100619.41;;;1.61
27715;BMP280;16051;53.024;8.630;2023-01-19T20:29:52;100629.13;;;1.62
27715;BMP280;16051;53.024;8.630;2023-01-19T20:34:00;100631.63;;;1.49
27715;BMP280;16051;53.024;8.630;2023-01-19T20:38:02;100632.63;;;1.62
27715;BMP280;16051;53.024;8.630;2023-01-19T20:42:24;100639.69;;;1.56
27715;BMP280;16051;53.024;8.630;2023-01-19T20:46:26;100645.91;;;1.57
27715;BMP280;16051;53.024;8.630;2023-01-19T20:50:28;100650.59;;;1.56
27715;BMP280;16051;53.024;8.630;2023-01-19T20:54:45;100658.03;;;1.52
27715;BMP280;16051;53.024;8.630;2023-01-19T20:58:48;100664.63;;;1.55
27715;BMP280;16051;53.024;8.630;2023-01-19T21:02:50;100667.91;;;1.42
27715;BMP280;16051;53.024;8.630;2023-01-19T21:06:52;100676.06;;;1.42
27715;BMP280;16051;53.024;8.630;2023-01-19T21:11:00;100683.94;;;1.37
27715;BMP280;16051;53.024;8.630;2023-01-19T21:15:04;100680.88;;;1.31
27715;BMP280;16051;53.024;8.630;2023-01-19T21:19:07;100689.81;;;1.32
27715;BMP280;16051;53.024;8.630;2023-01-19T21:23:09;100690.50;;;1.39
27715;BMP280;16051;53.024;8.630;2023-01-19T21:27:20;100689.84;;;1.28
27715;BMP280;16051;53.024;8.630;2023-01-19T21:31:23;100700.34;;;1.30
27715;BMP280;16051;53.024;8.630;2023-01-19T21:35:25;100705.41;;;1.28
27715;BMP280;16051;53.024;8.630;2023-01-19T21:39:27;100705.31;;;1.35
27715;BMP280;16051;53.024;8.630;2023-01-19T21:43:29;100714.00;;;1.26
27715;BMP280;16051;53.024;8.630;2023-01-19T21:47:33;100719.47;;;1.23
27715;BMP280;16051;53.024;8.630;2023-01-19T21:51:47;100734.91;;;1.33
27715;BMP280;16051;53.024;8.630;2023-01-19T21:55:50;100736.66;;;1.16
27715;BMP280;16051;53.024;8.630;2023-01-19T21:59:52;100736.97;;;1.22
27715;BMP280;16051;53.024;8.630;2023-01-19T22:03:56;100743.59;;;1.21
27715;BMP280;16051;53.024;8.630;2023-01-19T22:07:59;100752.56;;;1.18
27715;BMP280;16051;53.024;8.630;2023-01-19T22:12:14;100751.59;;;1.01
27715;BMP280;16051;53.024;8.630;2023-01-19T22:16:18;100762.78;;;1.07
27715;BMP280;16051;53.024;8.630;2023-01-19T22:20:22;100761.66;;;1.04
27715;BMP280;16051;53.024;8.630;2023-01-19T22:24:48;100767.06;;;1.08
27715;BMP280;16051;53.024;8.630;2023-01-19T22:28:52;100775.31;;;1.01
27715;BMP280;16051;53.024;8.630;2023-01-19T22:32:55;100777.25;;;1.00
27715;BMP280;16051;53.024;8.630;2023-01-19T22:36:59;100784.59;;;1.03
27715;BMP280;16051;53.024;8.630;2023-01-19T22:41:33;100786.66;;;0.92
27715;BMP280;16051;53.024;8.630;2023-01-19T22:45:39;100792.88;;;0.92
27715;BMP280;16051;53.024;8.630;2023-01-19T22:49:42;100792.13;;;0.88
27715;BMP280;16051;53.024;8.630;2023-01-19T22:53:46;100797.94;;;0.87
27715;BMP280;16051;53.024;8.630;2023-01-19T22:57:49;100796.53;;;0.75
27715;BMP280;16051;53.024;8.630;2023-01-19T23:01:51;100795.31;;;0.80
27715;BMP280;16051;53.024;8.630;2023-01-19T23:05:53;100793.31;;;0.84
27715;BMP280;16051;53.024;8.630;2023-01-19T23:09:56;100790.25;;;0.82
27715;BMP280;16051;53.024;8.630;2023-01-19T23:13:59;100791.47;;;0.74
27715;BMP280;16051;53.024;8.630;2023-01-19T23:18:01;100789.22;;;0.65
27715;BMP280;16051;53.024;8.630;2023-01-19T23:22:03;100791.47;;;0.74
27715;BMP280;16051;53.024;8.630;2023-01-19T23:26:09;100780.59;;;0.74
27715;BMP280;16051;53.024;8.630;2023-01-19T23:30:12;100791.16;;;0.68
27715;BMP280;16051;53.024;8.630;2023-01-19T23:34:16;100794.25;;;0.67
27715;BMP280;16051;53.024;8.630;2023-01-19T23:38:18;100789.69;;;0.57
27715;BMP280;16051;53.024;8.630;2023-01-19T23:42:21;100810.22;;;0.65
27715;BMP280;16051;53.024;8.630;2023-01-19T23:46:24;100811.81;;;0.59
27715;BMP280;16051;53.024;8.630;2023-01-19T23:50:26;100810.31;;;0.54
27715;BMP280;16051;53.024;8.630;2023-01-19T23:54:28;100791.03;;;0.34
27715;BMP280;16051;53.024;8.630;2023-01-19T23:58:53;100815.72;;;0.58
